createdAt,value
2022-10-23T00:01:48.209Z,21.08
2022-10-23T00:04:19.617Z,22.38
2022-10-23T00:06:42.229Z,20.13
2022-10-23T00:09:06.626Z,22.77
2022-10-23T00:11:30.212Z,21.85
2022-10-23T00:13:54.303Z,21.58
2022-10-23T00:16:16.766Z,20.70
2022-10-23T00:18:39.810Z,23.00
2022-10-23T00:21:02.965Z,21.75
2022-10-23T00:23:25.401Z,25.05
2022-10-23T00:25:47.773Z,24.30
2022-10-23T00:28:10.701Z,25.17
2022-10-23T00:30:33.129Z,26.08
2022-10-23T00:32:55.550Z,26.70
2022-10-23T00:35:18.141Z,29.30
2022-10-23T00:37:40.723Z,29.13
2022-10-23T00:40:04.803Z,29.58
2022-10-23T00:42:27.248Z,28.88
2022-10-23T00:44:49.548Z,28.70
2022-10-23T00:47:12.859Z,27.58
2022-10-23T00:52:04.564Z,24.77
2022-10-23T00:54:29.698Z,26.20
2022-10-23T00:56:53.995Z,26.35
2022-10-23T00:59:16.376Z,24.90
2022-10-23T01:01:38.902Z,24.80
2022-10-23T01:04:02.617Z,24.00
2022-10-23T01:06:38.177Z,25.75
2022-10-23T01:09:25.962Z,24.42
2022-10-23T01:12:21.253Z,24.13
2022-10-23T01:15:10.973Z,24.55
2022-10-23T01:18:03.869Z,24.55
2022-10-23T01:20:45.869Z,26.20
2022-10-23T01:23:13.941Z,25.23
2022-10-23T01:26:16.905Z,25.45
2022-10-23T01:28:49.306Z,24.23
2022-10-23T01:31:24.874Z,25.17
2022-10-23T01:33:56.327Z,25.88
2022-10-23T01:36:20.554Z,26.63
2022-10-23T01:38:56.867Z,26.40
2022-10-23T01:41:43.514Z,26.55
2022-10-23T01:44:36.643Z,27.27
2022-10-23T01:46:59.060Z,26.67
2022-10-23T01:49:21.842Z,27.77
2022-10-23T01:51:50.754Z,26.70
2022-10-23T01:54:14.397Z,27.92
2022-10-23T01:56:38.381Z,25.45
2022-10-23T01:59:04.023Z,27.45
2022-10-23T02:01:28.024Z,27.63
2022-10-23T02:03:50.917Z,26.65
2022-10-23T02:06:13.313Z,28.13
2022-10-23T02:08:35.656Z,26.97
2022-10-23T02:11:10.171Z,26.30
2022-10-23T02:14:07.761Z,28.20
2022-10-23T02:16:52.345Z,28.00
2022-10-23T02:19:30.796Z,27.65
2022-10-23T02:22:09.335Z,27.35
2022-10-23T02:24:55.868Z,28.38
2022-10-23T02:27:35.988Z,26.38
2022-10-23T02:30:08.825Z,27.05
2022-10-23T02:32:31.362Z,26.23
2022-10-23T02:34:53.846Z,28.67
2022-10-23T02:37:16.595Z,27.45
2022-10-23T02:39:39.478Z,24.70
2022-10-23T02:42:39.481Z,25.13
2022-10-23T02:45:32.182Z,25.50
2022-10-23T02:48:12.944Z,25.20
2022-10-23T02:51:04.457Z,26.52
2022-10-23T02:56:45.815Z,27.88
2022-10-23T02:59:37.330Z,27.83
2022-10-23T03:02:23.817Z,27.63
2022-10-23T03:04:46.380Z,25.48
2022-10-23T03:07:12.605Z,28.00
2022-10-23T03:09:34.931Z,26.25
2022-10-23T03:11:57.413Z,24.70
2022-10-23T03:14:19.897Z,27.67
2022-10-23T03:16:42.526Z,24.90
2022-10-23T03:19:04.941Z,22.30
2022-10-23T03:21:27.333Z,22.50
2022-10-23T03:23:49.665Z,22.40
2022-10-23T03:26:12.116Z,22.70
2022-10-23T03:28:35.690Z,22.33
2022-10-23T03:30:58.181Z,20.95
2022-10-23T03:33:20.682Z,21.02
2022-10-23T03:35:43.140Z,20.88
2022-10-23T03:38:05.493Z,22.20
2022-10-23T03:40:28.209Z,21.03
2022-10-23T03:42:50.682Z,20.50
2022-10-23T03:45:13.253Z,22.13
2022-10-23T03:47:41.032Z,19.98
2022-10-23T03:50:04.611Z,20.50
2022-10-23T03:52:26.990Z,21.60
2022-10-23T03:54:49.427Z,24.10
2022-10-23T03:57:12.228Z,23.85
2022-10-23T03:59:34.914Z,23.85
2022-10-23T04:01:57.312Z,24.05
2022-10-23T04:04:19.773Z,23.13
2022-10-23T04:06:42.335Z,23.30
2022-10-23T04:09:05.344Z,23.48
2022-10-23T04:11:28.035Z,23.17
2022-10-23T04:13:50.405Z,21.67
2022-10-23T04:16:12.984Z,22.73
2022-10-23T04:18:35.570Z,21.38
2022-10-23T04:20:57.962Z,20.95
2022-10-23T04:23:20.511Z,20.40
2022-10-23T04:25:42.918Z,19.92
2022-10-23T04:28:05.561Z,19.73
2022-10-23T04:30:28.068Z,19.52
2022-10-23T04:32:53.512Z,19.30
2022-10-23T04:35:16.179Z,19.00
2022-10-23T04:37:38.607Z,18.55
2022-10-23T04:40:01.189Z,19.43
2022-10-23T04:42:23.756Z,18.92
2022-10-23T04:44:46.278Z,19.13
2022-10-23T04:47:08.651Z,19.63
2022-10-23T04:49:30.962Z,19.17
2022-10-23T04:51:53.375Z,18.60
2022-10-23T04:54:15.865Z,18.47
2022-10-23T04:56:38.371Z,20.00
2022-10-23T04:59:01.365Z,19.52
2022-10-23T05:01:23.978Z,20.13
2022-10-23T05:03:46.528Z,19.73
2022-10-23T05:06:09.035Z,20.48
2022-10-23T05:08:31.684Z,18.50
2022-10-23T05:10:54.122Z,21.25
2022-10-23T05:13:19.753Z,19.57
2022-10-23T05:18:29.359Z,21.50
2022-10-23T05:21:01.308Z,20.00
2022-10-23T05:23:24.207Z,21.05
2022-10-23T05:25:46.761Z,21.60
2022-10-23T05:28:09.265Z,20.70
2022-10-23T05:30:33.248Z,21.85
2022-10-23T05:32:55.695Z,21.05
2022-10-23T05:35:22.250Z,20.77
2022-10-23T05:37:45.486Z,20.92
2022-10-23T05:40:08.854Z,23.35
2022-10-23T05:44:53.914Z,21.40
2022-10-23T05:47:16.539Z,23.35
2022-10-23T05:49:38.944Z,22.80
2022-10-23T05:52:01.370Z,22.90
2022-10-23T05:54:23.981Z,22.27
2022-10-23T05:56:46.377Z,22.52
2022-10-23T05:59:09.069Z,21.97
2022-10-23T06:01:31.747Z,22.27
2022-10-23T06:03:54.258Z,22.67
2022-10-23T06:06:16.582Z,21.93
2022-10-23T06:08:38.940Z,22.67
2022-10-23T06:11:09.667Z,22.88
2022-10-23T06:13:32.406Z,23.38
2022-10-23T06:15:54.806Z,23.05
2022-10-23T06:18:17.209Z,22.60
2022-10-23T06:20:39.742Z,23.25
2022-10-23T06:23:02.222Z,23.52
2022-10-23T06:25:24.788Z,22.27
2022-10-23T06:27:47.142Z,24.55
2022-10-23T06:30:10.132Z,23.30
2022-10-23T06:32:32.859Z,24.80
2022-10-23T06:34:55.353Z,24.33
2022-10-23T06:37:17.801Z,24.83
2022-10-23T06:39:40.613Z,23.70
2022-10-23T06:42:03.708Z,25.92
2022-10-23T06:44:26.274Z,23.58
2022-10-23T06:46:49.185Z,23.42
2022-10-23T06:49:11.493Z,23.83
2022-10-23T06:51:33.931Z,23.57
2022-10-23T06:53:56.837Z,24.00
2022-10-23T06:56:19.253Z,24.25
2022-10-23T06:58:41.862Z,25.38
2022-10-23T07:01:07.021Z,24.67
2022-10-23T07:03:29.689Z,24.40
2022-10-23T07:05:52.175Z,24.38
2022-10-23T07:08:14.925Z,25.08
2022-10-23T07:10:37.370Z,24.27
2022-10-23T07:13:01.243Z,25.53
2022-10-23T07:15:23.810Z,24.90
2022-10-23T07:17:46.230Z,24.30
2022-10-23T07:20:08.932Z,25.70
2022-10-23T07:22:31.390Z,24.67
2022-10-23T07:24:53.832Z,25.03
2022-10-23T07:27:16.337Z,23.43
2022-10-23T07:29:38.794Z,24.77
2022-10-23T07:32:01.902Z,23.55
2022-10-23T07:34:24.936Z,23.02
2022-10-23T07:36:47.517Z,26.42
2022-10-23T07:39:09.942Z,25.20
2022-10-23T07:41:32.341Z,24.57
2022-10-23T07:43:54.809Z,25.37
2022-10-23T07:46:17.306Z,24.33
2022-10-23T07:48:40.044Z,25.42
2022-10-23T07:51:08.325Z,25.17
2022-10-23T07:53:30.839Z,26.55
2022-10-23T07:55:58.380Z,26.87
2022-10-23T07:58:20.948Z,25.92
2022-10-23T08:00:43.528Z,24.20
2022-10-23T08:03:05.916Z,25.42
2022-10-23T08:05:28.468Z,26.90
2022-10-23T08:07:50.873Z,25.05
2022-10-23T08:10:13.352Z,25.10
2022-10-23T08:12:37.163Z,23.70
2022-10-23T08:14:59.695Z,23.90
2022-10-23T08:17:24.026Z,25.95
2022-10-23T08:19:48.932Z,25.83
2022-10-23T08:22:11.280Z,27.35
2022-10-23T08:24:33.706Z,26.67
2022-10-23T08:26:56.135Z,26.70
2022-10-23T08:29:18.529Z,25.75
2022-10-23T08:31:40.879Z,26.60
2022-10-23T08:34:03.267Z,26.80
2022-10-23T08:36:27.631Z,25.97
2022-10-23T08:38:50.287Z,26.08
2022-10-23T08:41:37.812Z,26.42
2022-10-23T08:44:19.410Z,26.98
2022-10-23T08:46:45.885Z,26.63
2022-10-23T08:49:53.837Z,25.30
2022-10-23T08:52:22.441Z,26.35
2022-10-23T08:55:15.218Z,26.33
2022-10-23T08:57:43.716Z,23.75
2022-10-23T09:00:20.223Z,24.95
2022-10-23T09:02:50.800Z,21.70
2022-10-23T09:05:59.124Z,22.27
2022-10-23T09:08:42.731Z,24.10
2022-10-23T09:11:12.475Z,20.20
2022-10-23T09:14:01.044Z,19.73
2022-10-23T09:16:56.030Z,20.02
2022-10-23T09:19:20.719Z,19.00
2022-10-23T09:21:45.656Z,19.50
2022-10-23T09:24:14.727Z,19.08
2022-10-23T09:26:40.115Z,17.63
2022-10-23T09:29:29.875Z,15.98
2022-10-23T09:31:54.534Z,16.45
2022-10-23T09:34:26.388Z,14.98
2022-10-23T09:37:04.148Z,16.33
2022-10-23T09:39:32.517Z,16.25
2022-10-23T09:41:57.017Z,15.77
2022-10-23T09:44:27.186Z,15.88
2022-10-23T09:47:00.973Z,15.60
2022-10-23T09:49:32.115Z,15.15
2022-10-23T09:52:12.519Z,16.48
2022-10-23T09:54:38.885Z,15.23
2022-10-23T09:57:37.195Z,14.90
2022-10-23T10:00:14.477Z,14.30
2022-10-23T10:02:37.035Z,14.05
2022-10-23T10:04:59.765Z,14.23
2022-10-23T10:07:25.533Z,14.88
2022-10-23T10:09:48.139Z,14.50
2022-10-23T10:12:50.194Z,13.43
2022-10-23T10:15:52.080Z,12.73
2022-10-23T10:18:40.368Z,13.35
2022-10-23T10:21:14.520Z,12.60
2022-10-23T10:24:20.167Z,12.40
2022-10-23T10:27:14.639Z,12.85
2022-10-23T10:30:25.514Z,11.65
2022-10-23T10:33:04.042Z,11.40
2022-10-23T10:35:52.849Z,11.07
2022-10-23T10:38:44.327Z,10.80
2022-10-23T10:41:21.862Z,10.77
2022-10-23T10:44:18.223Z,10.93
2022-10-23T10:46:58.578Z,11.38
2022-10-23T10:49:53.000Z,10.55
2022-10-23T10:52:38.991Z,10.60
2022-10-23T10:55:14.765Z,10.85
2022-10-23T10:58:00.120Z,12.05
2022-10-23T11:00:23.368Z,11.70
2022-10-23T11:02:49.397Z,12.82
2022-10-23T11:05:38.534Z,12.38
2022-10-23T11:08:28.560Z,12.05
2022-10-23T11:10:59.018Z,13.20
2022-10-23T11:13:33.730Z,13.43
2022-10-23T11:15:59.476Z,12.77
2022-10-23T11:18:28.571Z,12.07
2022-10-23T11:20:56.108Z,12.40
2022-10-23T11:23:46.096Z,11.52
2022-10-23T11:26:26.723Z,12.98
2022-10-23T11:29:26.732Z,11.40
2022-10-23T11:32:21.732Z,11.50
2022-10-23T11:35:08.570Z,11.55
2022-10-23T11:37:30.982Z,11.57
2022-10-23T11:40:23.074Z,12.63
2022-10-23T11:42:47.562Z,11.43
2022-10-23T11:45:48.423Z,10.63
2022-10-23T11:48:26.084Z,11.43
2022-10-23T11:50:48.738Z,11.57
2022-10-23T11:53:32.491Z,12.18
2022-10-23T11:56:00.885Z,12.88
2022-10-23T11:58:31.863Z,11.98
2022-10-23T12:01:06.232Z,13.43
2022-10-23T12:03:36.859Z,11.05
2022-10-23T12:06:04.982Z,10.52
2022-10-23T12:08:29.887Z,10.73
2022-10-23T12:10:53.204Z,11.45
2022-10-23T12:16:00.977Z,10.63
2022-10-23T12:18:23.681Z,10.45
2022-10-23T12:20:56.655Z,10.60
2022-10-23T12:23:50.067Z,10.23
2022-10-23T12:26:28.409Z,11.60
2022-10-23T12:29:26.073Z,10.18
2022-10-23T12:32:22.403Z,10.02
2022-10-23T12:35:12.507Z,9.80
2022-10-23T12:37:55.237Z,10.77
2022-10-23T12:40:17.660Z,10.13
2022-10-23T12:42:40.071Z,9.73
2022-10-23T12:45:19.746Z,9.53
2022-10-23T12:47:44.221Z,8.75
2022-10-23T12:50:25.180Z,9.02
2022-10-23T12:53:05.042Z,10.18
2022-10-23T12:55:47.535Z,9.75
2022-10-23T12:58:30.773Z,10.32
2022-10-23T13:00:56.677Z,10.45
2022-10-23T13:03:22.043Z,10.20
2022-10-23T13:05:44.422Z,8.95
2022-10-23T13:08:06.750Z,9.30
2022-10-23T13:10:29.221Z,8.43
2022-10-23T13:13:00.010Z,9.60
2022-10-23T13:15:23.297Z,8.52
2022-10-23T13:20:26.545Z,8.15
2022-10-23T13:22:55.254Z,7.47
2022-10-23T13:25:33.622Z,8.38
2022-10-23T13:28:08.017Z,7.88
2022-10-23T13:30:33.692Z,7.50
2022-10-23T13:32:56.158Z,7.25
2022-10-23T13:35:22.329Z,8.02
2022-10-23T13:40:38.330Z,8.45
2022-10-23T13:43:00.658Z,7.03
2022-10-23T13:45:25.179Z,7.33
2022-10-23T13:47:47.486Z,10.05
2022-10-23T13:50:11.331Z,8.80
2022-10-23T13:52:33.646Z,8.73
2022-10-23T13:54:56.083Z,8.43
2022-10-23T13:57:18.549Z,8.68
2022-10-23T13:59:41.027Z,8.73
2022-10-23T14:02:05.699Z,8.73
2022-10-23T14:04:28.199Z,7.20
2022-10-23T14:06:50.587Z,7.77
2022-10-23T14:09:17.836Z,7.70
2022-10-23T14:11:40.243Z,7.57
2022-10-23T14:14:02.627Z,7.93
2022-10-23T14:16:24.976Z,8.60
2022-10-23T14:18:47.666Z,8.40
2022-10-23T14:21:12.724Z,8.68
2022-10-23T14:23:35.123Z,8.23
2022-10-23T14:26:11.601Z,8.53
2022-10-23T14:28:34.240Z,9.48
2022-10-23T14:30:56.606Z,9.18
2022-10-23T14:33:18.918Z,9.57
2022-10-23T14:35:43.359Z,8.90
2022-10-23T14:38:05.677Z,9.15
2022-10-23T14:40:28.036Z,8.95
2022-10-23T14:42:50.393Z,10.10
2022-10-23T14:45:12.805Z,10.83
2022-10-23T14:47:35.177Z,10.07
2022-10-23T14:49:57.544Z,8.77
2022-10-23T14:52:19.981Z,9.50
2022-10-23T14:54:42.355Z,8.98
2022-10-23T14:57:04.918Z,10.27
2022-10-23T14:59:27.335Z,8.90
2022-10-23T15:01:49.809Z,9.37
2022-10-23T15:04:14.602Z,8.43
2022-10-23T15:06:37.392Z,8.77
2022-10-23T15:08:59.803Z,9.07
2022-10-23T15:11:23.107Z,9.50
2022-10-23T15:16:09.919Z,9.52
2022-10-23T15:18:32.476Z,9.98
2022-10-23T15:20:54.826Z,10.48
2022-10-23T15:23:17.198Z,9.23
2022-10-23T15:25:40.663Z,9.65
2022-10-23T15:28:03.034Z,9.15
2022-10-23T15:30:25.445Z,8.90
2022-10-23T15:32:47.762Z,9.40
2022-10-23T15:35:10.127Z,9.63
2022-10-23T15:37:32.481Z,8.70
2022-10-23T15:39:59.650Z,8.68
2022-10-23T15:42:24.556Z,9.95
2022-10-23T15:44:46.988Z,10.20
2022-10-23T15:47:09.328Z,11.13
2022-10-23T15:49:31.909Z,11.03
2022-10-23T15:51:54.370Z,11.82
2022-10-23T15:54:19.061Z,9.63
2022-10-23T15:56:41.451Z,11.52
2022-10-23T15:59:03.946Z,11.18
2022-10-23T16:01:26.719Z,11.80
2022-10-23T16:03:50.301Z,13.13
2022-10-23T16:06:15.336Z,11.75
2022-10-23T16:08:37.851Z,12.80
2022-10-23T16:11:00.245Z,12.85
2022-10-23T16:13:22.590Z,12.83
2022-10-23T16:15:45.061Z,13.27
2022-10-23T16:18:08.915Z,13.80
2022-10-23T16:20:31.408Z,14.70
2022-10-23T16:22:53.887Z,13.73
2022-10-23T16:25:16.362Z,13.52
2022-10-23T16:27:39.026Z,14.63
2022-10-23T16:30:01.375Z,13.45
2022-10-23T16:32:23.781Z,14.00
2022-10-23T16:34:46.400Z,12.63
2022-10-23T16:37:08.766Z,14.75
2022-10-23T16:39:31.634Z,13.33
2022-10-23T16:41:54.233Z,13.68
2022-10-23T16:44:16.633Z,13.88
2022-10-23T16:46:39.854Z,15.63
2022-10-23T16:51:27.627Z,13.95
2022-10-23T16:53:50.108Z,14.32
2022-10-23T16:56:15.586Z,15.13
2022-10-23T16:58:40.942Z,17.90
2022-10-23T17:01:27.292Z,18.48
2022-10-23T17:03:50.745Z,19.33
2022-10-23T17:08:36.216Z,17.20
2022-10-23T17:11:13.408Z,20.30
2022-10-23T17:13:36.914Z,23.90
2022-10-23T17:16:11.092Z,21.58
2022-10-23T17:18:35.597Z,22.52
2022-10-23T17:21:00.107Z,25.65
2022-10-23T17:23:22.797Z,26.05
2022-10-23T17:25:45.141Z,29.65
2022-10-23T17:28:07.549Z,40.60
2022-10-23T17:30:30.157Z,31.83
2022-10-23T17:32:52.516Z,32.60
2022-10-23T17:35:15.023Z,28.30
2022-10-23T17:37:37.413Z,25.60
2022-10-23T17:40:02.682Z,23.85
2022-10-23T17:42:25.245Z,21.67
2022-10-23T17:44:47.707Z,21.38
2022-10-23T17:47:10.540Z,22.40
2022-10-23T17:49:32.893Z,22.55
2022-10-23T17:51:57.060Z,20.95
2022-10-23T17:54:19.422Z,21.40
2022-10-23T17:56:41.855Z,21.63
2022-10-23T17:59:13.588Z,20.23
2022-10-23T18:01:36.312Z,19.67
2022-10-23T18:04:02.654Z,20.90
2022-10-23T18:06:32.267Z,21.80
2022-10-23T18:08:55.036Z,20.15
2022-10-23T18:11:25.283Z,20.33
2022-10-23T18:13:47.947Z,20.30
2022-10-23T18:16:11.746Z,20.08
2022-10-23T18:18:34.550Z,21.08
2022-10-23T18:21:01.236Z,21.08
2022-10-23T18:23:23.695Z,22.83
2022-10-23T18:25:46.274Z,21.40
2022-10-23T18:28:08.716Z,23.42
2022-10-23T18:30:31.139Z,21.20
2022-10-23T18:32:53.574Z,22.05
2022-10-23T18:35:16.006Z,21.20
2022-10-23T18:37:41.626Z,22.77
2022-10-23T18:40:04.872Z,21.27
2022-10-23T18:42:27.259Z,23.15
2022-10-23T18:44:50.112Z,23.47
2022-10-23T18:47:12.663Z,23.42
2022-10-23T18:49:35.121Z,25.48
2022-10-23T18:51:58.616Z,25.60
2022-10-23T18:54:21.497Z,24.60
2022-10-23T18:56:44.273Z,24.48
2022-10-23T18:59:10.083Z,26.92
2022-10-23T19:01:32.558Z,29.67
2022-10-23T19:06:23.938Z,26.23
2022-10-23T19:08:46.381Z,28.90
2022-10-23T19:11:09.228Z,28.87
2022-10-23T19:13:36.489Z,27.08
2022-10-23T19:16:01.497Z,28.75
2022-10-23T19:18:23.849Z,27.85
2022-10-23T19:20:46.165Z,29.27
2022-10-23T19:23:11.699Z,27.00
2022-10-23T19:25:36.369Z,26.80
2022-10-23T19:27:58.873Z,26.83
2022-10-23T19:30:22.796Z,25.17
2022-10-23T19:32:46.050Z,24.30
2022-10-23T19:35:09.578Z,22.90
2022-10-23T19:39:54.251Z,23.77
2022-10-23T19:42:16.677Z,24.47
2022-10-23T19:44:39.055Z,24.23
2022-10-23T19:47:02.521Z,24.65
2022-10-23T19:49:24.899Z,24.45
2022-10-23T19:51:50.925Z,25.07
2022-10-23T19:54:14.486Z,26.15
2022-10-23T19:56:37.463Z,22.65
2022-10-23T19:58:59.854Z,23.80
2022-10-23T20:01:24.731Z,25.03
2022-10-23T20:03:50.064Z,24.70
2022-10-23T20:06:13.993Z,25.30
2022-10-23T20:08:36.398Z,25.73
2022-10-23T20:10:58.730Z,27.07
2022-10-23T20:13:21.589Z,27.45
2022-10-23T20:15:44.270Z,26.60
2022-10-23T20:18:06.714Z,27.27
2022-10-23T20:20:29.124Z,27.70
2022-10-23T20:22:54.714Z,27.03
2022-10-23T20:25:18.072Z,26.98
2022-10-23T20:27:40.458Z,28.85
2022-10-23T20:30:02.957Z,29.45
2022-10-23T20:32:28.166Z,28.90
2022-10-23T20:34:50.626Z,30.00
2022-10-23T20:37:13.191Z,29.92
2022-10-23T20:39:36.709Z,28.00
2022-10-23T20:42:00.349Z,28.23
2022-10-23T20:44:22.935Z,27.15
2022-10-23T20:46:45.467Z,27.85
2022-10-23T20:49:07.925Z,25.77
2022-10-23T20:51:30.310Z,27.58
2022-10-23T20:53:54.556Z,28.73
2022-10-23T20:56:23.703Z,28.92
2022-10-23T20:58:46.413Z,30.05
2022-10-23T21:01:11.971Z,27.95
2022-10-23T21:03:34.724Z,28.33
2022-10-23T21:06:01.076Z,29.60
2022-10-23T21:08:23.497Z,26.30
2022-10-23T21:10:47.071Z,27.77
2022-10-23T21:13:09.609Z,27.13
2022-10-23T21:15:31.959Z,27.70
2022-10-23T21:17:54.667Z,26.50
2022-10-23T21:20:17.373Z,28.70
2022-10-23T21:22:39.752Z,30.23
2022-10-23T21:25:02.567Z,27.13
2022-10-23T21:27:25.176Z,26.47
2022-10-23T21:29:47.571Z,27.45
2022-10-23T21:32:09.957Z,27.50
2022-10-23T21:34:32.464Z,25.97
2022-10-23T21:39:37.289Z,25.75
2022-10-23T21:41:59.718Z,26.37
2022-10-23T21:44:22.244Z,25.37
2022-10-23T21:46:44.701Z,26.00
2022-10-23T21:49:07.168Z,27.67
2022-10-23T21:51:37.306Z,26.52
2022-10-23T21:53:59.850Z,24.13
2022-10-23T21:56:38.068Z,29.10
2022-10-23T21:59:01.325Z,26.67
2022-10-23T22:03:46.364Z,24.83
2022-10-23T22:06:16.273Z,29.25
2022-10-23T22:08:38.675Z,28.35
2022-10-23T22:11:04.574Z,25.27
2022-10-23T22:13:27.112Z,23.35
2022-10-23T22:15:49.570Z,26.63
2022-10-23T22:18:11.985Z,25.27
2022-10-23T22:20:34.344Z,25.23
2022-10-23T22:22:56.791Z,22.98
2022-10-23T22:25:19.188Z,24.38
2022-10-23T22:27:41.841Z,24.23
2022-10-23T22:30:05.957Z,23.33
2022-10-23T22:32:28.321Z,24.95
2022-10-23T22:34:53.098Z,24.87
2022-10-23T22:37:16.133Z,24.30
2022-10-23T22:39:38.815Z,24.05
2022-10-23T22:42:01.264Z,25.33
2022-10-23T22:44:23.698Z,23.15
2022-10-23T22:46:46.656Z,24.23
2022-10-23T22:49:09.121Z,25.15
2022-10-23T22:51:31.634Z,28.50
2022-10-23T22:53:53.974Z,23.52
2022-10-23T22:56:25.133Z,25.08
2022-10-23T22:58:47.714Z,24.80
2022-10-23T23:01:33.669Z,25.52
2022-10-23T23:03:58.218Z,25.42
2022-10-23T23:06:23.584Z,26.90
2022-10-23T23:08:46.246Z,27.75
2022-10-23T23:11:11.202Z,25.75
2022-10-23T23:13:33.769Z,26.77
2022-10-23T23:15:56.337Z,27.17
2022-10-23T23:18:18.814Z,27.85
2022-10-23T23:20:41.205Z,27.83
2022-10-23T23:23:03.720Z,27.65
2022-10-23T23:25:26.033Z,26.05
2022-10-23T23:27:48.533Z,27.73
2022-10-23T23:30:11.224Z,27.17
2022-10-23T23:32:34.982Z,27.15
2022-10-23T23:35:00.107Z,25.73
2022-10-23T23:37:22.473Z,26.27
2022-10-23T23:39:44.831Z,26.23
2022-10-23T23:42:07.243Z,26.20
2022-10-23T23:44:29.675Z,27.00
2022-10-23T23:46:52.076Z,26.37
2022-10-23T23:49:14.523Z,28.35
2022-10-23T23:51:37.342Z,26.57
2022-10-23T23:53:59.833Z,27.88
2022-10-23T23:56:22.349Z,26.98
2022-10-23T23:58:44.905Z,27.23
